sensor_id;sensor_type;location;lat;lon;timestamp;temperature;humidity
25436;DHT22;13363;52.772;-3.890;2023-07-31T00:01:50;17.20;99.90
25436;DHT22;13363;52.772;-3.890;2023-07-31T00:04:16;17.20;99.90
25436;DHT22;13363;52.772;-3.890;2023-07-31T00:06:42;17.10;99.90
25436;DHT22;13363;52.772;-3.890;2023-07-31T00:09:08;17.20;99.90
25436;DHT22;13363;52.772;-3.890;2023-07-31T00:11:34;17.20;99.90
25436;DHT22;13363;52.772;-3.890;2023-07-31T00:13:59;17.20;99.90
25436;DHT22;13363;52.772;-3.890;2023-07-31T00:16:25;17.20;99.90
25436;DHT22;13363;52.772;-3.890;2023-07-31T00:18:51;17.10;99.90
25436;DHT22;13363;52.772;-3.890;2023-07-31T00:21:17;17.20;99.90
25436;DHT22;13363;52.772;-3.890;2023-07-31T00:23:43;17.10;99.90
25436;DHT22;13363;52.772;-3.890;2023-07-31T00:26:09;17.10;99.90
25436;DHT22;13363;52.772;-3.890;2023-07-31T00:28:34;17.10;99.90
25436;DHT22;13363;52.772;-3.890;2023-07-31T00:31:00;17.10;99.90
25436;DHT22;13363;52.772;-3.890;2023-07-31T00:33:27;17.10;99.90
25436;DHT22;13363;52.772;-3.890;2023-07-31T00:35:53;17.00;99.90
25436;DHT22;13363;52.772;-3.890;2023-07-31T00:38:19;17.10;99.90
25436;DHT22;13363;52.772;-3.890;2023-07-31T00:40:44;17.10;99.90
25436;DHT22;13363;52.772;-3.890;2023-07-31T00:43:10;17.00;99.90
25436;DHT22;13363;52.772;-3.890;2023-07-31T00:45:36;17.10;99.90
25436;DHT22;13363;52.772;-3.890;2023-07-31T00:48:02;17.10;99.90
25436;DHT22;13363;52.772;-3.890;2023-07-31T00:50:28;17.10;99.90
25436;DHT22;13363;52.772;-3.890;2023-07-31T00:52:55;17.10;99.90
25436;DHT22;13363;52.772;-3.890;2023-07-31T00:55:21;17.10;99.90
25436;DHT22;13363;52.772;-3.890;2023-07-31T00:57:48;17.00;99.90
25436;DHT22;13363;52.772;-3.890;2023-07-31T01:00:14;17.00;99.90
25436;DHT22;13363;52.772;-3.890;2023-07-31T01:02:40;17.00;99.90
25436;DHT22;13363;52.772;-3.890;2023-07-31T01:05:06;17.00;99.90
25436;DHT22;13363;52.772;-3.890;2023-07-31T01:07:56;17.00;99.90
25436;DHT22;13363;52.772;-3.890;2023-07-31T01:10:32;16.90;99.90
25436;DHT22;13363;52.772;-3.890;2023-07-31T01:13:00;17.00;99.90
25436;DHT22;13363;52.772;-3.890;2023-07-31T01:15:28;16.90;99.90
25436;DHT22;13363;52.772;-3.890;2023-07-31T01:17:54;16.90;99.90
25436;DHT22;13363;52.772;-3.890;2023-07-31T01:20:23;17.00;99.90
25436;DHT22;13363;52.772;-3.890;2023-07-31T01:31:00;16.90;99.90
25436;DHT22;13363;52.772;-3.890;2023-07-31T01:33:28;16.80;99.90
25436;DHT22;13363;52.772;-3.890;2023-07-31T01:35:54;16.70;99.90
25436;DHT22;13363;52.772;-3.890;2023-07-31T01:38:21;16.80;99.90
25436;DHT22;13363;52.772;-3.890;2023-07-31T01:40:51;16.70;99.90
25436;DHT22;13363;52.772;-3.890;2023-07-31T01:43:18;16.70;99.90
25436;DHT22;13363;52.772;-3.890;2023-07-31T01:45:43;16.70;99.90
25436;DHT22;13363;52.772;-3.890;2023-07-31T01:50:38;16.80;99.90
25436;DHT22;13363;52.772;-3.890;2023-07-31T01:53:04;16.70;99.90
25436;DHT22;13363;52.772;-3.890;2023-07-31T01:55:30;16.80;99.90
25436;DHT22;13363;52.772;-3.890;2023-07-31T01:57:56;16.70;99.90
25436;DHT22;13363;52.772;-3.890;2023-07-31T02:00:22;16.60;99.90
25436;DHT22;13363;52.772;-3.890;2023-07-31T02:02:47;16.70;99.90
25436;DHT22;13363;52.772;-3.890;2023-07-31T02:05:13;16.70;99.90
25436;DHT22;13363;52.772;-3.890;2023-07-31T02:07:39;16.70;99.90
25436;DHT22;13363;52.772;-3.890;2023-07-31T02:10:05;16.70;99.90
25436;DHT22;13363;52.772;-3.890;2023-07-31T02:12:31;16.70;99.90
25436;DHT22;13363;52.772;-3.890;2023-07-31T02:14:57;16.70;99.90
25436;DHT22;13363;52.772;-3.890;2023-07-31T02:17:23;16.70;99.90
25436;DHT22;13363;52.772;-3.890;2023-07-31T02:19:49;16.60;99.90
25436;DHT22;13363;52.772;-3.890;2023-07-31T02:22:15;16.70;99.90
25436;DHT22;13363;52.772;-3.890;2023-07-31T02:24:41;16.70;99.90
25436;DHT22;13363;52.772;-3.890;2023-07-31T02:27:06;16.70;99.90
25436;DHT22;13363;52.772;-3.890;2023-07-31T02:29:32;16.70;99.90
25436;DHT22;13363;52.772;-3.890;2023-07-31T02:31:58;16.70;99.90
25436;DHT22;13363;52.772;-3.890;2023-07-31T02:34:24;16.70;99.90
25436;DHT22;13363;52.772;-3.890;2023-07-31T02:36:49;16.60;99.90
25436;DHT22;13363;52.772;-3.890;2023-07-31T02:39:15;16.70;99.90
25436;DHT22;13363;52.772;-3.890;2023-07-31T02:41:41;16.70;99.90
25436;DHT22;13363;52.772;-3.890;2023-07-31T02:44:07;16.70;99.90
25436;DHT22;13363;52.772;-3.890;2023-07-31T02:46:33;16.70;99.90
25436;DHT22;13363;52.772;-3.890;2023-07-31T02:48:58;16.70;99.90
25436;DHT22;13363;52.772;-3.890;2023-07-31T02:51:24;16.80;99.90
25436;DHT22;13363;52.772;-3.890;2023-07-31T02:53:50;16.80;99.90
25436;DHT22;13363;52.772;-3.890;2023-07-31T02:56:16;16.70;99.90
25436;DHT22;13363;52.772;-3.890;2023-07-31T02:58:42;16.70;99.90
25436;DHT22;13363;52.772;-3.890;2023-07-31T03:01:07;16.80;99.90
25436;DHT22;13363;52.772;-3.890;2023-07-31T03:03:33;16.70;99.90
25436;DHT22;13363;52.772;-3.890;2023-07-31T03:05:59;16.70;99.90
25436;DHT22;13363;52.772;-3.890;2023-07-31T03:08:25;16.70;99.90
25436;DHT22;13363;52.772;-3.890;2023-07-31T03:10:51;16.70;99.90
25436;DHT22;13363;52.772;-3.890;2023-07-31T03:13:17;16.70;99.90
25436;DHT22;13363;52.772;-3.890;2023-07-31T03:15:43;16.70;99.90
25436;DHT22;13363;52.772;-3.890;2023-07-31T03:18:09;16.70;99.90
25436;DHT22;13363;52.772;-3.890;2023-07-31T03:20:35;16.60;99.90
25436;DHT22;13363;52.772;-3.890;2023-07-31T03:23:01;16.70;99.90
25436;DHT22;13363;52.772;-3.890;2023-07-31T03:25:26;16.70;99.90
25436;DHT22;13363;52.772;-3.890;2023-07-31T03:27:52;16.60;99.90
25436;DHT22;13363;52.772;-3.890;2023-07-31T03:30:18;16.70;99.90
25436;DHT22;13363;52.772;-3.890;2023-07-31T03:32:44;16.70;99.90
25436;DHT22;13363;52.772;-3.890;2023-07-31T03:35:10;16.70;99.90
25436;DHT22;13363;52.772;-3.890;2023-07-31T03:37:35;16.70;99.90
25436;DHT22;13363;52.772;-3.890;2023-07-31T03:40:01;16.60;99.90
25436;DHT22;13363;52.772;-3.890;2023-07-31T03:42:27;16.70;99.90
25436;DHT22;13363;52.772;-3.890;2023-07-31T03:44:53;16.70;99.90
25436;DHT22;13363;52.772;-3.890;2023-07-31T03:47:19;16.70;99.90
25436;DHT22;13363;52.772;-3.890;2023-07-31T03:49:45;16.60;99.90
25436;DHT22;13363;52.772;-3.890;2023-07-31T03:52:11;16.70;99.90
25436;DHT22;13363;52.772;-3.890;2023-07-31T03:54:36;16.60;99.90
25436;DHT22;13363;52.772;-3.890;2023-07-31T03:57:02;16.60;99.90
25436;DHT22;13363;52.772;-3.890;2023-07-31T03:59:28;16.70;99.90
25436;DHT22;13363;52.772;-3.890;2023-07-31T04:01:54;16.60;99.90
25436;DHT22;13363;52.772;-3.890;2023-07-31T04:04:20;16.60;99.90
25436;DHT22;13363;52.772;-3.890;2023-07-31T04:06:46;16.60;99.90
25436;DHT22;13363;52.772;-3.890;2023-07-31T04:09:11;16.60;99.90
25436;DHT22;13363;52.772;-3.890;2023-07-31T04:11:37;16.50;99.90
25436;DHT22;13363;52.772;-3.890;2023-07-31T04:14:04;16.60;99.90
25436;DHT22;13363;52.772;-3.890;2023-07-31T04:16:30;16.50;99.90
25436;DHT22;13363;52.772;-3.890;2023-07-31T04:18:56;16.50;99.90
25436;DHT22;13363;52.772;-3.890;2023-07-31T04:21:22;16.50;99.90
25436;DHT22;13363;52.772;-3.890;2023-07-31T04:23:47;16.50;99.90
25436;DHT22;13363;52.772;-3.890;2023-07-31T04:26:13;16.50;99.90
25436;DHT22;13363;52.772;-3.890;2023-07-31T04:28:39;16.50;99.90
25436;DHT22;13363;52.772;-3.890;2023-07-31T04:31:05;16.50;99.90
25436;DHT22;13363;52.772;-3.890;2023-07-31T04:33:31;16.50;99.90
25436;DHT22;13363;52.772;-3.890;2023-07-31T04:35:57;16.50;99.90
25436;DHT22;13363;52.772;-3.890;2023-07-31T04:38:23;16.50;99.90
25436;DHT22;13363;52.772;-3.890;2023-07-31T04:40:49;16.50;99.90
25436;DHT22;13363;52.772;-3.890;2023-07-31T04:43:15;16.40;99.90
25436;DHT22;13363;52.772;-3.890;2023-07-31T04:45:45;16.40;99.90
25436;DHT22;13363;52.772;-3.890;2023-07-31T04:48:13;16.50;99.90
25436;DHT22;13363;52.772;-3.890;2023-07-31T04:50:39;16.40;99.90
25436;DHT22;13363;52.772;-3.890;2023-07-31T04:53:04;16.40;99.90
25436;DHT22;13363;52.772;-3.890;2023-07-31T04:55:30;16.40;99.90
25436;DHT22;13363;52.772;-3.890;2023-07-31T04:57:57;16.40;99.90
25436;DHT22;13363;52.772;-3.890;2023-07-31T05:00:23;16.40;99.90
25436;DHT22;13363;52.772;-3.890;2023-07-31T05:02:49;16.40;99.90
25436;DHT22;13363;52.772;-3.890;2023-07-31T05:05:14;16.40;99.90
25436;DHT22;13363;52.772;-3.890;2023-07-31T05:07:40;16.40;99.90
25436;DHT22;13363;52.772;-3.890;2023-07-31T05:10:06;16.50;99.90
25436;DHT22;13363;52.772;-3.890;2023-07-31T05:12:32;16.50;99.90
25436;DHT22;13363;52.772;-3.890;2023-07-31T05:14:58;16.50;99.90
25436;DHT22;13363;52.772;-3.890;2023-07-31T05:17:24;16.50;99.90
25436;DHT22;13363;52.772;-3.890;2023-07-31T05:19:50;16.40;99.90
25436;DHT22;13363;52.772;-3.890;2023-07-31T05:22:15;16.40;99.90
25436;DHT22;13363;52.772;-3.890;2023-07-31T05:24:41;16.50;99.90
25436;DHT22;13363;52.772;-3.890;2023-07-31T05:27:07;16.50;99.90
25436;DHT22;13363;52.772;-3.890;2023-07-31T05:29:33;16.50;99.90
25436;DHT22;13363;52.772;-3.890;2023-07-31T05:31:59;16.50;99.90
25436;DHT22;13363;52.772;-3.890;2023-07-31T05:34:25;16.40;99.90
25436;DHT22;13363;52.772;-3.890;2023-07-31T05:36:51;16.50;99.90
25436;DHT22;13363;52.772;-3.890;2023-07-31T05:39:16;16.50;99.90
25436;DHT22;13363;52.772;-3.890;2023-07-31T05:41:45;16.50;99.90
25436;DHT22;13363;52.772;-3.890;2023-07-31T05:44:11;16.50;99.90
25436;DHT22;13363;52.772;-3.890;2023-07-31T05:46:37;16.50;99.90
25436;DHT22;13363;52.772;-3.890;2023-07-31T05:49:02;16.50;99.90
25436;DHT22;13363;52.772;-3.890;2023-07-31T05:51:28;16.50;99.90
25436;DHT22;13363;52.772;-3.890;2023-07-31T05:53:54;16.50;99.90
25436;DHT22;13363;52.772;-3.890;2023-07-31T05:56:20;16.50;99.90
25436;DHT22;13363;52.772;-3.890;2023-07-31T05:58:46;16.50;99.90
25436;DHT22;13363;52.772;-3.890;2023-07-31T06:01:12;16.40;99.90
25436;DHT22;13363;52.772;-3.890;2023-07-31T06:03:38;16.50;99.90
25436;DHT22;13363;52.772;-3.890;2023-07-31T06:06:04;16.60;99.90
25436;DHT22;13363;52.772;-3.890;2023-07-31T06:08:29;16.50;99.90
25436;DHT22;13363;52.772;-3.890;2023-07-31T06:10:56;16.50;99.90
25436;DHT22;13363;52.772;-3.890;2023-07-31T06:13:22;16.40;99.90
25436;DHT22;13363;52.772;-3.890;2023-07-31T06:15:47;16.50;99.90
25436;DHT22;13363;52.772;-3.890;2023-07-31T06:18:13;16.50;99.90
25436;DHT22;13363;52.772;-3.890;2023-07-31T06:20:39;16.50;99.90
25436;DHT22;13363;52.772;-3.890;2023-07-31T06:23:06;16.40;99.90
25436;DHT22;13363;52.772;-3.890;2023-07-31T06:25:32;16.40;99.90
25436;DHT22;13363;52.772;-3.890;2023-07-31T06:27:58;16.40;99.90
25436;DHT22;13363;52.772;-3.890;2023-07-31T06:30:23;16.50;99.90
25436;DHT22;13363;52.772;-3.890;2023-07-31T06:32:49;16.50;99.90
25436;DHT22;13363;52.772;-3.890;2023-07-31T06:35:15;16.50;99.90
25436;DHT22;13363;52.772;-3.890;2023-07-31T06:37:41;16.50;99.90
25436;DHT22;13363;52.772;-3.890;2023-07-31T06:40:09;16.60;99.90
25436;DHT22;13363;52.772;-3.890;2023-07-31T06:42:35;16.60;99.90
25436;DHT22;13363;52.772;-3.890;2023-07-31T06:45:04;16.50;99.90
25436;DHT22;13363;52.772;-3.890;2023-07-31T06:47:30;16.60;99.90
25436;DHT22;13363;52.772;-3.890;2023-07-31T06:49:56;16.50;99.90
25436;DHT22;13363;52.772;-3.890;2023-07-31T06:52:22;16.50;99.90
25436;DHT22;13363;52.772;-3.890;2023-07-31T06:55:16;16.50;99.90
25436;DHT22;13363;52.772;-3.890;2023-07-31T06:57:46;16.50;99.90
25436;DHT22;13363;52.772;-3.890;2023-07-31T07:00:12;16.50;99.90
25436;DHT22;13363;52.772;-3.890;2023-07-31T07:02:39;16.40;99.90
25436;DHT22;13363;52.772;-3.890;2023-07-31T07:05:06;16.50;99.90
25436;DHT22;13363;52.772;-3.890;2023-07-31T07:07:32;16.50;99.90
25436;DHT22;13363;52.772;-3.890;2023-07-31T07:09:58;16.50;99.90
25436;DHT22;13363;52.772;-3.890;2023-07-31T07:12:30;16.50;99.90
25436;DHT22;13363;52.772;-3.890;2023-07-31T07:14:59;16.40;99.90
25436;DHT22;13363;52.772;-3.890;2023-07-31T07:17:31;16.50;99.90
25436;DHT22;13363;52.772;-3.890;2023-07-31T07:20:02;16.50;99.90
25436;DHT22;13363;52.772;-3.890;2023-07-31T07:22:33;16.40;99.90
25436;DHT22;13363;52.772;-3.890;2023-07-31T07:25:06;16.50;99.90
25436;DHT22;13363;52.772;-3.890;2023-07-31T07:27:35;16.50;99.90
25436;DHT22;13363;52.772;-3.890;2023-07-31T07:30:02;16.40;99.90
25436;DHT22;13363;52.772;-3.890;2023-07-31T07:32:28;16.40;99.90
25436;DHT22;13363;52.772;-3.890;2023-07-31T07:34:55;16.40;99.90
25436;DHT22;13363;52.772;-3.890;2023-07-31T07:37:22;16.50;99.90
25436;DHT22;13363;52.772;-3.890;2023-07-31T07:39:47;16.50;99.90
25436;DHT22;13363;52.772;-3.890;2023-07-31T07:42:13;16.50;99.90
25436;DHT22;13363;52.772;-3.890;2023-07-31T07:44:39;16.50;99.90
25436;DHT22;13363;52.772;-3.890;2023-07-31T07:47:05;16.50;99.90
25436;DHT22;13363;52.772;-3.890;2023-07-31T07:49:34;16.50;99.90
25436;DHT22;13363;52.772;-3.890;2023-07-31T07:52:01;16.40;99.90
25436;DHT22;13363;52.772;-3.890;2023-07-31T07:54:27;16.40;99.90
25436;DHT22;13363;52.772;-3.890;2023-07-31T07:56:53;16.40;99.90
25436;DHT22;13363;52.772;-3.890;2023-07-31T07:59:19;16.40;99.90
25436;DHT22;13363;52.772;-3.890;2023-07-31T08:01:45;16.40;99.90
25436;DHT22;13363;52.772;-3.890;2023-07-31T08:04:11;16.40;99.90
25436;DHT22;13363;52.772;-3.890;2023-07-31T08:06:38;16.50;99.90
25436;DHT22;13363;52.772;-3.890;2023-07-31T08:09:04;16.50;99.90
25436;DHT22;13363;52.772;-3.890;2023-07-31T08:11:32;16.50;99.90
25436;DHT22;13363;52.772;-3.890;2023-07-31T08:13:58;16.50;99.90
25436;DHT22;13363;52.772;-3.890;2023-07-31T08:16:24;16.60;99.90
25436;DHT22;13363;52.772;-3.890;2023-07-31T08:18:50;16.60;99.90
25436;DHT22;13363;52.772;-3.890;2023-07-31T08:21:15;16.60;99.90
25436;DHT22;13363;52.772;-3.890;2023-07-31T08:23:41;16.60;99.90
25436;DHT22;13363;52.772;-3.890;2023-07-31T08:26:07;16.50;99.90
25436;DHT22;13363;52.772;-3.890;2023-07-31T08:28:33;16.60;99.90
25436;DHT22;13363;52.772;-3.890;2023-07-31T08:31:00;16.60;99.90
25436;DHT22;13363;52.772;-3.890;2023-07-31T08:33:26;16.70;99.90
25436;DHT22;13363;52.772;-3.890;2023-07-31T08:35:52;16.70;99.90
25436;DHT22;13363;52.772;-3.890;2023-07-31T08:38:17;16.80;99.90
25436;DHT22;13363;52.772;-3.890;2023-07-31T08:40:43;16.90;99.90
25436;DHT22;13363;52.772;-3.890;2023-07-31T08:43:09;16.90;99.90
25436;DHT22;13363;52.772;-3.890;2023-07-31T08:45:35;17.00;99.90
25436;DHT22;13363;52.772;-3.890;2023-07-31T08:48:01;17.00;99.90
25436;DHT22;13363;52.772;-3.890;2023-07-31T08:50:27;17.10;99.90
25436;DHT22;13363;52.772;-3.890;2023-07-31T08:52:53;17.10;99.90
25436;DHT22;13363;52.772;-3.890;2023-07-31T08:55:19;17.20;99.90
25436;DHT22;13363;52.772;-3.890;2023-07-31T08:57:51;17.20;99.90
25436;DHT22;13363;52.772;-3.890;2023-07-31T09:00:18;17.30;99.90
25436;DHT22;13363;52.772;-3.890;2023-07-31T09:03:00;17.40;99.90
25436;DHT22;13363;52.772;-3.890;2023-07-31T09:05:31;17.40;99.90
25436;DHT22;13363;52.772;-3.890;2023-07-31T09:07:58;17.40;99.90
25436;DHT22;13363;52.772;-3.890;2023-07-31T09:10:24;17.60;99.90
25436;DHT22;13363;52.772;-3.890;2023-07-31T09:12:53;17.70;99.90
25436;DHT22;13363;52.772;-3.890;2023-07-31T09:15:19;17.60;99.90
25436;DHT22;13363;52.772;-3.890;2023-07-31T09:17:46;17.50;99.90
25436;DHT22;13363;52.772;-3.890;2023-07-31T09:22:42;17.40;99.90
25436;DHT22;13363;52.772;-3.890;2023-07-31T09:25:22;17.40;99.90
25436;DHT22;13363;52.772;-3.890;2023-07-31T09:28:09;17.30;99.90
25436;DHT22;13363;52.772;-3.890;2023-07-31T09:31:04;17.20;99.90
25436;DHT22;13363;52.772;-3.890;2023-07-31T09:33:30;17.10;99.90
25436;DHT22;13363;52.772;-3.890;2023-07-31T09:35:58;17.10;99.90
25436;DHT22;13363;52.772;-3.890;2023-07-31T09:38:26;17.10;99.90
25436;DHT22;13363;52.772;-3.890;2023-07-31T09:40:52;17.00;99.90
25436;DHT22;13363;52.772;-3.890;2023-07-31T09:43:20;17.00;99.90
25436;DHT22;13363;52.772;-3.890;2023-07-31T09:45:46;16.80;99.90
25436;DHT22;13363;52.772;-3.890;2023-07-31T09:48:14;16.80;99.90
25436;DHT22;13363;52.772;-3.890;2023-07-31T09:50:43;16.80;99.90
25436;DHT22;13363;52.772;-3.890;2023-07-31T09:53:10;16.80;99.90
25436;DHT22;13363;52.772;-3.890;2023-07-31T09:55:37;16.90;99.90
25436;DHT22;13363;52.772;-3.890;2023-07-31T09:58:07;16.90;99.90
25436;DHT22;13363;52.772;-3.890;2023-07-31T10:00:34;16.90;99.90
25436;DHT22;13363;52.772;-3.890;2023-07-31T10:03:02;16.90;99.90
25436;DHT22;13363;52.772;-3.890;2023-07-31T10:05:36;16.90;99.90
25436;DHT22;13363;52.772;-3.890;2023-07-31T10:08:03;16.90;99.90
25436;DHT22;13363;52.772;-3.890;2023-07-31T10:10:29;16.80;99.90
25436;DHT22;13363;52.772;-3.890;2023-07-31T10:12:56;16.80;99.90
25436;DHT22;13363;52.772;-3.890;2023-07-31T10:15:23;16.80;99.90
25436;DHT22;13363;52.772;-3.890;2023-07-31T10:17:50;16.80;99.90
25436;DHT22;13363;52.772;-3.890;2023-07-31T10:20:17;16.70;99.90
25436;DHT22;13363;52.772;-3.890;2023-07-31T10:22:44;16.80;99.90
25436;DHT22;13363;52.772;-3.890;2023-07-31T10:25:11;16.80;99.90
25436;DHT22;13363;52.772;-3.890;2023-07-31T10:27:39;16.80;99.90
25436;DHT22;13363;52.772;-3.890;2023-07-31T10:30:14;16.90;99.90
25436;DHT22;13363;52.772;-3.890;2023-07-31T10:32:41;16.80;99.90
25436;DHT22;13363;52.772;-3.890;2023-07-31T10:35:09;16.80;99.90
25436;DHT22;13363;52.772;-3.890;2023-07-31T10:37:39;16.70;99.90
25436;DHT22;13363;52.772;-3.890;2023-07-31T10:42:35;16.70;99.90
25436;DHT22;13363;52.772;-3.890;2023-07-31T10:45:07;16.60;99.90
25436;DHT22;13363;52.772;-3.890;2023-07-31T10:47:46;16.60;99.90
25436;DHT22;13363;52.772;-3.890;2023-07-31T10:52:48;16.60;99.90
25436;DHT22;13363;52.772;-3.890;2023-07-31T10:55:31;16.70;99.90
25436;DHT22;13363;52.772;-3.890;2023-07-31T10:58:04;16.70;99.90
25436;DHT22;13363;52.772;-3.890;2023-07-31T11:00:31;16.80;99.90
25436;DHT22;13363;52.772;-3.890;2023-07-31T11:03:02;16.80;99.90
25436;DHT22;13363;52.772;-3.890;2023-07-31T11:06:00;16.80;99.90
25436;DHT22;13363;52.772;-3.890;2023-07-31T11:08:40;16.70;99.90
25436;DHT22;13363;52.772;-3.890;2023-07-31T11:11:08;16.60;99.90
25436;DHT22;13363;52.772;-3.890;2023-07-31T11:13:43;16.50;99.90
25436;DHT22;13363;52.772;-3.890;2023-07-31T11:16:10;16.50;99.90
25436;DHT22;13363;52.772;-3.890;2023-07-31T11:18:39;16.50;99.90
25436;DHT22;13363;52.772;-3.890;2023-07-31T11:21:06;16.50;99.90
25436;DHT22;13363;52.772;-3.890;2023-07-31T11:23:32;16.50;99.90
25436;DHT22;13363;52.772;-3.890;2023-07-31T11:26:01;16.50;99.90
25436;DHT22;13363;52.772;-3.890;2023-07-31T11:28:32;16.50;99.90
25436;DHT22;13363;52.772;-3.890;2023-07-31T11:30:59;16.50;99.90
25436;DHT22;13363;52.772;-3.890;2023-07-31T11:33:25;16.60;99.90
25436;DHT22;13363;52.772;-3.890;2023-07-31T11:35:50;16.60;99.90
25436;DHT22;13363;52.772;-3.890;2023-07-31T11:38:32;16.80;99.90
25436;DHT22;13363;52.772;-3.890;2023-07-31T11:41:00;16.80;99.90
25436;DHT22;13363;52.772;-3.890;2023-07-31T11:43:28;16.70;99.90
25436;DHT22;13363;52.772;-3.890;2023-07-31T11:46:00;16.80;99.90
25436;DHT22;13363;52.772;-3.890;2023-07-31T11:48:31;16.80;99.90
25436;DHT22;13363;52.772;-3.890;2023-07-31T11:51:00;16.80;99.90
25436;DHT22;13363;52.772;-3.890;2023-07-31T11:55:55;16.70;99.90
25436;DHT22;13363;52.772;-3.890;2023-07-31T11:58:23;16.70;99.90
25436;DHT22;13363;52.772;-3.890;2023-07-31T12:00:49;16.70;99.90
25436;DHT22;13363;52.772;-3.890;2023-07-31T12:03:16;16.70;99.90
25436;DHT22;13363;52.772;-3.890;2023-07-31T12:05:42;16.70;99.90
25436;DHT22;13363;52.772;-3.890;2023-07-31T12:08:11;16.80;99.90
25436;DHT22;13363;52.772;-3.890;2023-07-31T12:10:37;16.90;99.90
25436;DHT22;13363;52.772;-3.890;2023-07-31T12:13:11;16.90;99.90
25436;DHT22;13363;52.772;-3.890;2023-07-31T12:15:44;16.90;99.90
25436;DHT22;13363;52.772;-3.890;2023-07-31T12:18:14;16.80;99.90
25436;DHT22;13363;52.772;-3.890;2023-07-31T12:20:44;16.80;99.90
25436;DHT22;13363;52.772;-3.890;2023-07-31T12:23:18;16.80;99.90
25436;DHT22;13363;52.772;-3.890;2023-07-31T12:25:45;16.80;99.90
25436;DHT22;13363;52.772;-3.890;2023-07-31T12:28:11;16.70;99.90
25436;DHT22;13363;52.772;-3.890;2023-07-31T12:30:40;16.70;99.90
25436;DHT22;13363;52.772;-3.890;2023-07-31T12:33:15;16.70;99.90
25436;DHT22;13363;52.772;-3.890;2023-07-31T12:35:45;16.70;99.90
25436;DHT22;13363;52.772;-3.890;2023-07-31T12:38:13;16.80;99.90
25436;DHT22;13363;52.772;-3.890;2023-07-31T12:40:40;16.80;99.90
25436;DHT22;13363;52.772;-3.890;2023-07-31T12:43:07;16.80;99.90
25436;DHT22;13363;52.772;-3.890;2023-07-31T12:45:33;17.00;99.90
25436;DHT22;13363;52.772;-3.890;2023-07-31T12:48:00;17.00;99.90
25436;DHT22;13363;52.772;-3.890;2023-07-31T12:50:26;17.10;99.90
25436;DHT22;13363;52.772;-3.890;2023-07-31T12:52:53;17.20;99.90
25436;DHT22;13363;52.772;-3.890;2023-07-31T12:55:20;17.20;99.90
25436;DHT22;13363;52.772;-3.890;2023-07-31T12:57:46;17.30;99.90
25436;DHT22;13363;52.772;-3.890;2023-07-31T13:00:12;17.40;99.90
25436;DHT22;13363;52.772;-3.890;2023-07-31T13:02:39;17.20;99.90
25436;DHT22;13363;52.772;-3.890;2023-07-31T13:05:05;17.30;99.90
25436;DHT22;13363;52.772;-3.890;2023-07-31T13:07:31;17.20;99.90
25436;DHT22;13363;52.772;-3.890;2023-07-31T13:09:57;17.10;99.90
25436;DHT22;13363;52.772;-3.890;2023-07-31T13:12:23;17.10;99.90
25436;DHT22;13363;52.772;-3.890;2023-07-31T13:14:49;17.10;99.90
25436;DHT22;13363;52.772;-3.890;2023-07-31T13:17:15;17.10;99.90
25436;DHT22;13363;52.772;-3.890;2023-07-31T13:19:41;17.30;99.90
25436;DHT22;13363;52.772;-3.890;2023-07-31T13:22:07;17.40;99.90
25436;DHT22;13363;52.772;-3.890;2023-07-31T13:24:33;17.50;99.90
25436;DHT22;13363;52.772;-3.890;2023-07-31T13:26:59;17.40;99.90
25436;DHT22;13363;52.772;-3.890;2023-07-31T13:29:25;17.30;99.90
25436;DHT22;13363;52.772;-3.890;2023-07-31T13:31:52;17.20;99.90
25436;DHT22;13363;52.772;-3.890;2023-07-31T13:34:21;17.20;99.90
25436;DHT22;13363;52.772;-3.890;2023-07-31T13:36:53;17.40;99.90
25436;DHT22;13363;52.772;-3.890;2023-07-31T13:39:21;17.40;99.90
25436;DHT22;13363;52.772;-3.890;2023-07-31T13:41:47;17.30;99.90
25436;DHT22;13363;52.772;-3.890;2023-07-31T13:44:14;17.30;99.90
25436;DHT22;13363;52.772;-3.890;2023-07-31T13:46:40;17.40;99.90
25436;DHT22;13363;52.772;-3.890;2023-07-31T13:49:06;17.50;99.90
25436;DHT22;13363;52.772;-3.890;2023-07-31T13:51:31;16.80;99.90
25436;DHT22;13363;52.772;-3.890;2023-07-31T13:53:57;17.30;99.90
25436;DHT22;13363;52.772;-3.890;2023-07-31T13:56:23;17.40;99.90
25436;DHT22;13363;52.772;-3.890;2023-07-31T13:58:49;17.50;99.90
25436;DHT22;13363;52.772;-3.890;2023-07-31T14:01:15;17.50;99.90
25436;DHT22;13363;52.772;-3.890;2023-07-31T14:03:41;17.40;99.90
25436;DHT22;13363;52.772;-3.890;2023-07-31T14:06:07;17.50;99.90
25436;DHT22;13363;52.772;-3.890;2023-07-31T14:08:33;17.50;99.90
25436;DHT22;13363;52.772;-3.890;2023-07-31T14:10:59;17.50;99.90
25436;DHT22;13363;52.772;-3.890;2023-07-31T14:13:24;17.40;99.90
25436;DHT22;13363;52.772;-3.890;2023-07-31T14:15:50;17.50;99.90
25436;DHT22;13363;52.772;-3.890;2023-07-31T14:18:17;17.40;99.90
25436;DHT22;13363;52.772;-3.890;2023-07-31T14:20:43;17.40;99.90
25436;DHT22;13363;52.772;-3.890;2023-07-31T14:23:09;17.40;99.90
25436;DHT22;13363;52.772;-3.890;2023-07-31T14:25:34;17.50;99.90
25436;DHT22;13363;52.772;-3.890;2023-07-31T14:28:01;17.40;99.90
25436;DHT22;13363;52.772;-3.890;2023-07-31T14:30:28;17.50;99.90
25436;DHT22;13363;52.772;-3.890;2023-07-31T14:32:54;17.50;99.90
25436;DHT22;13363;52.772;-3.890;2023-07-31T14:35:20;17.50;99.90
25436;DHT22;13363;52.772;-3.890;2023-07-31T14:37:46;17.70;99.90
25436;DHT22;13363;52.772;-3.890;2023-07-31T14:40:12;17.90;99.90
25436;DHT22;13363;52.772;-3.890;2023-07-31T14:42:39;17.70;99.90
25436;DHT22;13363;52.772;-3.890;2023-07-31T14:45:06;17.60;99.90
25436;DHT22;13363;52.772;-3.890;2023-07-31T14:47:32;17.60;99.90
25436;DHT22;13363;52.772;-3.890;2023-07-31T14:49:59;17.70;99.90
25436;DHT22;13363;52.772;-3.890;2023-07-31T14:52:25;17.50;99.90
25436;DHT22;13363;52.772;-3.890;2023-07-31T14:54:51;17.60;99.90
25436;DHT22;13363;52.772;-3.890;2023-07-31T14:57:17;17.60;99.90
25436;DHT22;13363;52.772;-3.890;2023-07-31T14:59:44;17.80;99.90
25436;DHT22;13363;52.772;-3.890;2023-07-31T15:02:10;17.90;99.90
25436;DHT22;13363;52.772;-3.890;2023-07-31T15:04:36;18.00;99.90
25436;DHT22;13363;52.772;-3.890;2023-07-31T15:07:03;18.00;99.90
25436;DHT22;13363;52.772;-3.890;2023-07-31T15:09:29;18.00;99.90
25436;DHT22;13363;52.772;-3.890;2023-07-31T15:11:56;18.20;99.90
25436;DHT22;13363;52.772;-3.890;2023-07-31T15:14:22;18.20;99.90
25436;DHT22;13363;52.772;-3.890;2023-07-31T15:16:48;18.20;99.90
25436;DHT22;13363;52.772;-3.890;2023-07-31T15:19:14;18.30;99.90
25436;DHT22;13363;52.772;-3.890;2023-07-31T15:21:40;18.20;99.90
25436;DHT22;13363;52.772;-3.890;2023-07-31T15:24:07;18.00;99.90
25436;DHT22;13363;52.772;-3.890;2023-07-31T15:26:32;18.00;99.90
25436;DHT22;13363;52.772;-3.890;2023-07-31T15:29:06;18.00;99.90
25436;DHT22;13363;52.772;-3.890;2023-07-31T15:31:39;17.90;99.90
25436;DHT22;13363;52.772;-3.890;2023-07-31T15:34:05;17.90;99.90
25436;DHT22;13363;52.772;-3.890;2023-07-31T15:36:31;17.90;99.90